< < Back
Terminal Aerodrome Forecast


Current Version              Previous Versions:   1  2  3  4  5  6  7  8  9  

Terminal Aerodrome Forecast

720
FTUS44 KBMX 301722
TAFMGM
TAF
KMGM 301722Z 3018/3118 27010G16KT P6SM SCT015 BKN025
      TEMPO 3018/3020 BKN015
     FM302100 30010KT P6SM BKN040
     FM310000 00000KT P6SM SCT050
     FM310900 20005KT P6SM BKN045
      TEMPO 3109/3112 3SM BR=

Latest METAR

151
SAUS80 KWBC 310200
MTRMGM
METAR KMGM 310153Z 00000KT 10SM CLR 18/12 A3012 RMK AO2 SLP199
T01830117


USA.gov is the U.S. government's official web portal to all federal, state and local government web resources and services.